createdAt,value
2023-01-07T11:28:40.619Z,87.76
2023-01-07T11:29:41.462Z,87.55
2023-01-07T11:30:41.477Z,87.85
2023-01-07T11:31:41.762Z,87.76
2023-01-07T11:32:41.413Z,88.17
2023-01-07T11:34:01.700Z,87.85
2023-01-07T11:34:41.412Z,87.76
2023-01-07T11:35:41.365Z,87.45
2023-01-07T11:36:41.443Z,87.14
2023-01-07T11:37:41.432Z,86.94
2023-01-07T11:38:41.352Z,87.04
2023-01-07T11:39:41.362Z,86.83
2023-01-07T11:40:41.326Z,87.04
2023-01-07T11:41:41.268Z,87.24
2023-01-07T11:42:41.359Z,86.73
2023-01-07T11:43:41.332Z,86.98
2023-01-07T11:44:41.392Z,87.08
2023-01-07T11:45:41.346Z,86.67
2023-01-07T11:46:41.334Z,87.18
2023-01-07T11:47:41.285Z,87.24
2023-01-07T11:48:41.199Z,86.73
2023-01-07T11:49:41.239Z,86.94
2023-01-07T11:50:41.208Z,86.94
2023-01-07T11:51:41.157Z,86.94
2023-01-07T11:52:41.215Z,87.35
2023-01-07T11:53:41.213Z,87.24
2023-01-07T11:54:41.137Z,86.02
2023-01-07T11:55:41.243Z,86.43
2023-01-07T11:56:41.124Z,86.16
2023-01-07T11:57:41.212Z,86.36
2023-01-07T11:58:41.403Z,86.16
2023-01-07T11:59:41.183Z,86.05
2023-01-07T12:00:41.048Z,86.12
2023-01-07T12:01:41.080Z,86.02
2023-01-07T12:02:41.182Z,85.71
2023-01-07T12:03:41.093Z,85.61
2023-01-07T12:04:40.929Z,85.40
2023-01-07T12:05:40.988Z,85.50
2023-01-07T12:06:40.944Z,85.10
2023-01-07T12:07:41.968Z,84.99
2023-01-07T12:08:40.951Z,84.85
2023-01-07T12:09:40.925Z,84.65
2023-01-07T12:10:40.941Z,84.85
2023-01-07T12:11:41.054Z,84.99
2023-01-07T12:12:40.942Z,84.24
2023-01-07T12:13:40.882Z,84.75
2023-01-07T12:14:40.835Z,84.34
2023-01-07T12:15:40.881Z,84.58
2023-01-07T12:16:40.803Z,84.69
2023-01-07T12:17:40.923Z,84.69
2023-01-07T12:18:40.790Z,84.38
2023-01-07T12:19:40.773Z,83.97
2023-01-07T12:20:40.807Z,84.38
2023-01-07T12:21:40.757Z,84.58
2023-01-07T12:22:40.791Z,84.55
2023-01-07T12:23:40.753Z,84.28
2023-01-07T12:24:40.773Z,84.17
2023-01-07T12:25:40.702Z,83.76
2023-01-07T12:26:40.893Z,83.46
2023-01-07T12:27:40.897Z,83.76
2023-01-07T12:28:40.865Z,83.87
2023-01-07T12:29:41.485Z,83.87
2023-01-07T12:30:43.224Z,83.66
2023-01-07T12:31:40.714Z,83.36
2023-01-07T12:32:40.906Z,83.15
2023-01-07T12:33:41.058Z,83.36
2023-01-07T12:34:40.594Z,83.36
2023-01-07T12:35:40.561Z,83.56
2023-01-07T12:36:40.677Z,83.87
2023-01-07T12:37:40.739Z,83.66
2023-01-07T12:38:40.707Z,83.46
2023-01-07T12:39:40.876Z,83.87
2023-01-07T12:40:40.559Z,83.56
2023-01-07T12:41:40.625Z,83.56
2023-01-07T12:42:40.607Z,83.36
2023-01-07T12:43:40.526Z,83.56
2023-01-07T12:44:40.530Z,83.36
2023-01-07T12:45:40.406Z,82.40
2023-01-07T12:46:40.529Z,82.20
2023-01-07T12:47:40.580Z,82.09
2023-01-07T12:48:40.435Z,81.88
2023-01-07T12:49:40.447Z,82.20
2023-01-07T12:50:40.385Z,82.70
2023-01-07T12:51:41.388Z,82.50
2023-01-07T12:52:40.271Z,82.43
2023-01-07T12:53:40.378Z,82.95
2023-01-07T12:54:40.412Z,82.34
2023-01-07T12:55:41.148Z,82.54
2023-01-07T12:56:40.349Z,82.64
2023-01-07T12:57:40.442Z,82.95
2023-01-07T12:58:40.282Z,82.84
2023-01-07T12:59:46.120Z,82.84
2023-01-07T13:00:40.222Z,82.84
2023-01-07T13:01:40.384Z,83.25
2023-01-07T13:02:40.267Z,82.64
2023-01-07T13:03:40.542Z,83.25
2023-01-07T13:04:40.323Z,83.25
2023-01-07T13:05:40.357Z,82.78
2023-01-07T13:06:40.284Z,82.64
2023-01-07T13:07:40.277Z,82.64
2023-01-07T13:08:40.063Z,82.75
2023-01-07T13:09:40.192Z,82.64
2023-01-07T13:10:40.064Z,83.05
2023-01-07T13:11:40.057Z,82.95
2023-01-07T13:12:43.058Z,82.84
2023-01-07T13:13:40.074Z,83.05
2023-01-07T13:14:40.071Z,82.64
2023-01-07T13:15:40.249Z,82.95
2023-01-07T13:16:40.096Z,83.05
2023-01-07T13:17:39.966Z,82.95
2023-01-07T13:18:40.191Z,82.75
2023-01-07T13:19:39.996Z,82.95
2023-01-07T13:20:40.154Z,82.84
2023-01-07T13:21:39.993Z,82.84
2023-01-07T13:22:39.919Z,83.05
2023-01-07T13:23:39.973Z,83.15
2023-01-07T13:24:55.764Z,83.05
2023-01-07T13:25:39.955Z,83.25
2023-01-07T13:26:39.933Z,83.36
2023-01-07T13:27:39.872Z,82.84
2023-01-07T13:28:39.867Z,83.05
2023-01-07T13:29:39.849Z,82.64
2023-01-07T13:30:39.838Z,82.95
2023-01-07T13:31:42.601Z,83.36
2023-01-07T13:32:39.806Z,82.95
2023-01-07T13:33:39.821Z,83.05
2023-01-07T13:34:39.767Z,83.25
2023-01-07T13:35:39.937Z,83.05
2023-01-07T13:36:39.898Z,82.95
2023-01-07T13:37:39.922Z,83.15
2023-01-07T13:38:39.696Z,83.25
2023-01-07T13:39:39.702Z,83.25
2023-01-07T13:40:39.712Z,83.15
2023-01-07T13:41:39.663Z,83.87
2023-01-07T13:42:39.803Z,83.46
2023-01-07T13:43:39.675Z,83.60
2023-01-07T13:44:39.620Z,83.81
2023-01-07T13:45:39.710Z,83.91
2023-01-07T13:46:39.702Z,84.11
2023-01-07T13:47:39.687Z,84.36
2023-01-07T13:48:39.608Z,84.77
2023-01-07T13:49:39.599Z,84.56
2023-01-07T13:50:39.549Z,84.66
2023-01-07T13:51:39.535Z,84.66
2023-01-07T13:52:39.617Z,84.87
2023-01-07T13:53:39.606Z,84.87
2023-01-07T13:54:39.493Z,85.07
2023-01-07T13:55:39.573Z,85.07
2023-01-07T13:56:39.692Z,85.48
2023-01-07T13:57:39.514Z,85.52
2023-01-07T13:58:39.521Z,85.52
2023-01-07T13:59:39.577Z,85.72
2023-01-07T14:00:39.580Z,85.93
2023-01-07T14:01:39.559Z,85.72
2023-01-07T14:02:39.582Z,85.93
2023-01-07T14:03:39.497Z,85.93
2023-01-07T14:04:39.361Z,86.04
2023-01-07T14:05:39.396Z,86.34
2023-01-07T14:06:39.379Z,86.34
2023-01-07T14:07:39.342Z,86.79
2023-01-07T14:08:39.445Z,86.90
2023-01-07T14:09:39.375Z,86.99
2023-01-07T14:10:39.307Z,86.99
2023-01-07T14:11:39.318Z,87.41
2023-01-07T14:12:39.298Z,87.41
2023-01-07T14:13:39.214Z,87.30
2023-01-07T14:14:39.360Z,87.20
2023-01-07T14:15:39.243Z,87.41
2023-01-07T14:16:39.261Z,87.41
2023-01-07T14:17:39.167Z,87.71
2023-01-07T14:18:39.167Z,87.30
2023-01-07T14:19:39.267Z,87.41
2023-01-07T14:20:39.156Z,86.99
2023-01-07T14:21:39.107Z,86.85
2023-01-07T14:22:39.116Z,86.55
2023-01-07T14:23:39.098Z,86.55
2023-01-07T14:24:39.073Z,86.65
2023-01-07T14:25:39.152Z,86.44
2023-01-07T14:26:39.151Z,86.44
2023-01-07T14:27:39.041Z,86.44
2023-01-07T14:28:39.186Z,86.34
2023-01-07T14:29:39.055Z,86.55
2023-01-07T14:30:39.091Z,86.55
2023-01-07T14:31:39.121Z,86.34
2023-01-07T14:32:39.044Z,86.14
2023-01-07T14:33:38.895Z,86.34
2023-01-07T14:34:39.038Z,86.44
2023-01-07T14:35:38.974Z,86.34
2023-01-07T14:36:39.460Z,86.34
2023-01-07T14:37:39.035Z,86.65
2023-01-07T14:38:38.878Z,86.75
2023-01-07T14:39:39.197Z,86.65
2023-01-07T14:40:38.873Z,87.06
2023-01-07T14:41:39.043Z,87.37
2023-01-07T14:42:38.820Z,87.51
2023-01-07T14:43:38.859Z,87.41
2023-01-07T14:44:39.001Z,87.51
2023-01-07T14:45:38.978Z,87.61
2023-01-07T14:46:38.960Z,87.71
2023-01-07T14:47:38.782Z,87.92
2023-01-07T14:48:38.833Z,87.61
2023-01-07T14:49:38.773Z,87.92
2023-01-07T14:50:38.761Z,87.71
2023-01-07T14:51:38.852Z,87.82
2023-01-07T14:52:38.967Z,87.71
2023-01-07T14:53:38.733Z,88.43
2023-01-07T14:54:39.299Z,88.27
2023-01-07T14:55:38.616Z,88.68
2023-01-07T14:56:38.730Z,88.47
2023-01-07T14:57:38.733Z,88.47
2023-01-07T14:58:38.634Z,88.68
2023-01-07T14:59:38.592Z,88.68
2023-01-07T15:00:38.826Z,88.78
2023-01-07T15:01:38.817Z,88.82
2023-01-07T15:02:38.865Z,89.03
2023-01-07T15:03:38.645Z,89.23
2023-01-07T15:04:38.538Z,89.33
2023-01-07T15:05:38.659Z,89.69
2023-01-07T15:06:38.528Z,89.78
2023-01-07T15:07:38.525Z,90.09
2023-01-07T15:08:38.832Z,90.55
2023-01-07T15:09:38.475Z,90.85
2023-01-07T15:10:38.441Z,91.16
2023-01-07T15:11:38.447Z,91.41
2023-01-07T15:12:38.506Z,91.61
2023-01-07T15:13:38.789Z,91.82
2023-01-07T15:14:38.489Z,91.93
2023-01-07T15:15:38.343Z,91.82
2023-01-07T15:16:38.611Z,91.82
2023-01-07T15:17:38.426Z,92.07
2023-01-07T15:18:38.375Z,92.38
2023-01-07T15:19:38.421Z,92.83
2023-01-07T15:20:38.547Z,92.93
2023-01-07T15:21:38.340Z,92.97
2023-01-07T15:22:38.319Z,92.87
2023-01-07T15:23:38.354Z,93.12
2023-01-07T15:24:38.267Z,93.64
2023-01-07T15:25:38.344Z,93.99
2023-01-07T15:26:38.227Z,94.20
2023-01-07T15:27:38.221Z,94.55
2023-01-07T15:28:38.216Z,94.76
2023-01-07T15:29:38.203Z,95.06
2023-01-07T15:30:38.190Z,95.10
2023-01-07T15:31:38.258Z,95.52
2023-01-07T15:32:38.200Z,96.08
2023-01-07T15:33:38.343Z,96.39
2023-01-07T15:34:38.162Z,96.91
2023-01-07T15:35:38.112Z,97.11
2023-01-07T15:36:38.132Z,97.21
2023-01-07T15:37:38.056Z,97.16
2023-01-07T15:38:38.130Z,97.16
2023-01-07T15:39:38.039Z,97.67
2023-01-07T15:40:38.071Z,97.82
2023-01-07T15:41:38.160Z,98.33
2023-01-07T15:42:38.005Z,98.75
2023-01-07T15:43:38.008Z,99.00
2023-01-07T15:44:40.495Z,99.10
2023-01-07T15:45:38.028Z,99.10
2023-01-07T15:46:38.098Z,99.31
2023-01-07T15:47:38.037Z,99.52
2023-01-07T15:48:38.180Z,99.77
2023-01-07T15:49:38.021Z,99.98
2023-01-07T15:50:38.003Z,99.99
2023-01-07T15:51:39.954Z,99.99
2023-01-07T15:52:37.883Z,99.99
2023-01-07T15:53:37.899Z,99.99
2023-01-07T15:54:37.842Z,99.99
2023-01-07T15:55:37.866Z,99.99
2023-01-07T15:56:37.882Z,99.99
2023-01-07T15:57:38.108Z,99.99
2023-01-07T15:58:37.810Z,99.99
2023-01-07T15:59:37.830Z,99.99
2023-01-07T16:00:37.769Z,99.99
2023-01-07T16:01:38.190Z,99.99
2023-01-07T16:02:37.876Z,99.99
2023-01-07T16:03:37.733Z,99.99
2023-01-07T16:04:37.853Z,99.99
2023-01-07T16:05:37.740Z,99.99
2023-01-07T16:06:37.736Z,99.99
2023-01-07T16:07:37.743Z,99.99
2023-01-07T16:08:37.853Z,99.99
2023-01-07T16:09:37.686Z,99.99
2023-01-07T16:10:39.106Z,99.99
2023-01-07T16:11:37.673Z,99.99
2023-01-07T16:12:37.698Z,99.99
2023-01-07T16:13:37.682Z,99.99
2023-01-07T16:14:37.656Z,99.99
2023-01-07T16:15:37.900Z,99.99
2023-01-07T16:16:37.679Z,99.99
2023-01-07T16:17:37.651Z,99.99
2023-01-07T16:18:37.659Z,99.99
2023-01-07T16:19:37.573Z,99.99
2023-01-07T16:20:37.475Z,99.99
2023-01-07T16:21:37.630Z,99.99
2023-01-07T16:22:37.529Z,99.99
2023-01-07T16:23:37.561Z,99.99
2023-01-07T16:24:37.544Z,99.99
2023-01-07T16:25:37.456Z,99.99
2023-01-07T16:26:37.505Z,99.99
2023-01-07T16:27:37.423Z,99.99
2023-01-07T16:28:37.459Z,99.99
2023-01-07T16:29:37.396Z,99.99
2023-01-07T16:30:37.360Z,99.99
2023-01-07T16:31:38.423Z,99.99
2023-01-07T16:32:37.339Z,99.99
2023-01-07T16:33:37.479Z,99.99
2023-01-07T16:34:37.321Z,99.99
2023-01-07T16:35:48.206Z,99.99
2023-01-07T16:36:37.295Z,99.99
2023-01-07T16:37:37.787Z,99.99
2023-01-07T16:38:37.327Z,99.99
2023-01-07T16:39:37.291Z,99.99
2023-01-07T16:40:37.215Z,99.99
2023-01-07T16:41:37.232Z,99.99
2023-01-07T16:42:37.229Z,99.99
2023-01-07T16:43:37.165Z,99.99
2023-01-07T16:44:37.233Z,99.99
2023-01-07T16:45:37.121Z,99.99
2023-01-07T16:46:37.211Z,99.99
2023-01-07T16:47:37.206Z,99.99
2023-01-07T16:48:37.193Z,99.99
2023-01-07T16:49:37.379Z,99.99
2023-01-07T16:50:37.108Z,99.99
2023-01-07T16:51:37.159Z,99.99
2023-01-07T16:52:37.099Z,99.99
2023-01-07T16:53:37.235Z,99.99
2023-01-07T16:54:37.272Z,99.99
2023-01-07T16:55:37.113Z,99.99
2023-01-07T16:56:36.995Z,99.99
2023-01-07T16:57:37.183Z,99.99
2023-01-07T16:58:36.963Z,99.99
2023-01-07T16:59:37.118Z,99.99
2023-01-07T17:00:37.150Z,99.99
2023-01-07T17:01:37.121Z,99.99
2023-01-07T17:02:36.937Z,99.99
2023-01-07T17:03:37.136Z,99.99
2023-01-07T17:04:36.916Z,99.99
2023-01-07T17:05:37.032Z,99.99
2023-01-07T17:06:36.932Z,99.99
2023-01-07T17:07:36.847Z,99.99
2023-01-07T17:08:36.913Z,99.99
2023-01-07T17:09:36.864Z,99.99
2023-01-07T17:10:36.921Z,99.99
2023-01-07T17:11:37.122Z,99.99
2023-01-07T17:12:36.912Z,99.99
2023-01-07T17:13:36.873Z,99.99
2023-01-07T17:14:37.061Z,99.99
2023-01-07T17:15:36.896Z,99.99
2023-01-07T17:16:38.638Z,99.99
2023-01-07T17:17:36.816Z,99.99
2023-01-07T17:18:36.823Z,99.99
2023-01-07T17:19:36.768Z,99.99
2023-01-07T17:20:36.984Z,99.99
2023-01-07T17:21:36.836Z,99.99
2023-01-07T17:22:36.761Z,99.99
2023-01-07T17:23:36.775Z,99.99
2023-01-07T17:24:36.656Z,99.99
2023-01-07T17:25:36.630Z,99.99
2023-01-07T17:26:40.677Z,99.99
2023-01-07T17:27:36.714Z,99.99
2023-01-07T17:28:36.635Z,99.99
2023-01-07T17:29:36.611Z,99.99
2023-01-07T17:30:36.532Z,99.99
2023-01-07T17:31:36.853Z,99.99
2023-01-07T17:32:36.543Z,99.99
2023-01-07T17:33:36.925Z,99.99
2023-01-07T17:34:36.512Z,99.99
2023-01-07T17:35:36.726Z,99.99
2023-01-07T17:36:36.584Z,99.99
2023-01-07T17:37:36.492Z,99.99
2023-01-07T17:38:36.456Z,99.99
2023-01-07T17:39:36.496Z,99.99
2023-01-07T17:40:36.390Z,99.99
2023-01-07T17:41:36.463Z,99.99
2023-01-07T17:42:36.518Z,99.99
2023-01-07T17:43:36.489Z,99.99
2023-01-07T17:44:36.413Z,99.99
2023-01-07T17:45:36.699Z,99.99
2023-01-07T17:46:36.345Z,99.99
2023-01-07T17:47:36.866Z,99.99
2023-01-07T17:48:36.333Z,99.99
2023-01-07T17:49:36.363Z,99.99
2023-01-07T17:50:36.295Z,99.99
2023-01-07T17:51:36.297Z,99.99
2023-01-07T17:52:38.178Z,99.99
2023-01-07T17:53:36.258Z,99.99
2023-01-07T17:54:36.727Z,99.99
2023-01-07T17:55:36.451Z,99.99
2023-01-07T17:56:36.495Z,99.99
2023-01-07T17:57:36.400Z,99.99
2023-01-07T17:58:36.421Z,99.99
2023-01-07T17:59:36.357Z,99.99
2023-01-07T18:00:36.814Z,99.99
2023-01-07T18:01:36.274Z,99.99
2023-01-07T18:02:36.324Z,99.99
2023-01-07T18:03:36.196Z,99.99
2023-01-07T18:04:36.315Z,99.99
2023-01-07T18:05:36.153Z,99.99
2023-01-07T18:06:36.099Z,99.99
2023-01-07T18:07:36.076Z,99.99
2023-01-07T18:08:39.207Z,99.99
2023-01-07T18:09:36.285Z,99.99
2023-01-07T18:10:36.216Z,99.99
2023-01-07T18:11:36.328Z,99.99
2023-01-07T18:12:36.083Z,99.99
2023-01-07T18:13:35.946Z,99.99
2023-01-07T18:14:36.009Z,99.99
2023-01-07T18:15:36.114Z,99.99
2023-01-07T18:16:35.985Z,99.99
2023-01-07T18:17:36.024Z,99.99
2023-01-07T18:18:35.933Z,99.99
2023-01-07T18:19:35.933Z,99.99
2023-01-07T18:20:36.003Z,99.99
2023-01-07T18:21:35.873Z,99.99
2023-01-07T18:22:35.971Z,99.99
2023-01-07T18:23:35.837Z,99.99
2023-01-07T18:24:36.174Z,99.99
2023-01-07T18:25:36.106Z,99.99
2023-01-07T18:26:36.037Z,99.99
2023-01-07T18:27:35.788Z,99.99
2023-01-07T18:28:35.827Z,99.99
2023-01-07T18:29:35.789Z,99.99
2023-01-07T18:30:35.798Z,99.99
2023-01-07T18:31:35.943Z,99.99
2023-01-07T18:32:35.756Z,99.99
2023-01-07T18:33:35.793Z,99.99
2023-01-07T18:34:36.131Z,99.99
2023-01-07T18:35:36.042Z,99.99
2023-01-07T18:36:36.000Z,99.99
2023-01-07T18:37:35.908Z,99.99
2023-01-07T18:38:36.374Z,99.99
2023-01-07T18:39:35.761Z,99.99
2023-01-07T18:40:35.668Z,99.99
2023-01-07T18:41:35.868Z,99.99
2023-01-07T18:42:35.618Z,99.99
2023-01-07T18:43:35.590Z,99.99
2023-01-07T18:44:35.946Z,99.99
2023-01-07T18:45:35.934Z,99.99
2023-01-07T18:46:35.631Z,99.99
2023-01-07T18:47:35.548Z,99.99
2023-01-07T18:48:35.545Z,99.99
2023-01-07T18:49:35.549Z,99.99
2023-01-07T18:50:35.525Z,99.99
2023-01-07T18:51:35.548Z,99.99
2023-01-07T18:52:35.501Z,99.99
2023-01-07T18:53:35.443Z,99.99
2023-01-07T18:54:35.442Z,99.99
2023-01-07T18:55:35.422Z,99.99
2023-01-07T18:56:35.629Z,99.99
2023-01-07T18:57:35.395Z,99.99
2023-01-07T18:58:35.648Z,99.99
2023-01-07T18:59:35.367Z,99.99
2023-01-07T19:00:35.462Z,99.99
2023-01-07T19:01:38.671Z,99.99
2023-01-07T19:02:35.304Z,99.99
2023-01-07T19:03:35.432Z,99.99
2023-01-07T19:04:35.319Z,99.99
2023-01-07T19:05:35.732Z,99.99
2023-01-07T19:06:35.293Z,99.99
2023-01-07T19:07:35.388Z,99.99
2023-01-07T19:08:35.262Z,99.99
2023-01-07T19:09:35.245Z,99.99
2023-01-07T19:10:35.201Z,99.99
2023-01-07T19:11:35.271Z,99.99
2023-01-07T19:12:35.242Z,99.99
2023-01-07T19:13:35.326Z,99.99
2023-01-07T19:14:35.283Z,99.99
2023-01-07T19:15:35.109Z,99.99
2023-01-07T19:16:39.297Z,99.99
2023-01-07T19:17:35.147Z,99.99
2023-01-07T19:18:35.088Z,99.99
2023-01-07T19:19:47.317Z,99.99
2023-01-07T19:20:35.103Z,99.99
2023-01-07T19:21:35.098Z,99.99
2023-01-07T19:22:35.046Z,99.99
2023-01-07T19:23:35.024Z,99.99
2023-01-07T19:24:35.048Z,99.99
2023-01-07T19:25:34.983Z,99.99
2023-01-07T19:26:35.004Z,99.99
2023-01-07T19:27:34.985Z,99.99
2023-01-07T19:28:34.973Z,99.99
2023-01-07T19:29:35.273Z,99.99
2023-01-07T19:30:34.972Z,99.99
2023-01-07T19:31:34.958Z,99.99
2023-01-07T19:32:34.999Z,99.99
2023-01-07T19:33:35.266Z,99.99
2023-01-07T19:34:35.095Z,99.99
2023-01-07T19:35:35.001Z,99.99
2023-01-07T19:36:34.987Z,99.99
2023-01-07T19:37:34.829Z,99.99
2023-01-07T19:38:35.613Z,99.99
2023-01-07T19:39:34.876Z,99.99
2023-01-07T19:40:34.993Z,99.99
2023-01-07T19:41:34.828Z,99.99
2023-01-07T19:42:34.841Z,99.99
2023-01-07T19:43:34.824Z,99.99
2023-01-07T19:44:34.897Z,99.99
2023-01-07T19:45:34.798Z,99.99
2023-01-07T19:46:34.711Z,99.99
2023-01-07T19:47:34.854Z,99.99
2023-01-07T19:48:34.720Z,99.99
2023-01-07T19:49:34.843Z,99.99
2023-01-07T19:50:35.046Z,99.99
2023-01-07T19:51:34.673Z,99.99
2023-01-07T19:52:34.666Z,99.99
2023-01-07T19:53:34.730Z,99.99
2023-01-07T19:54:34.739Z,99.99
2023-01-07T19:55:34.615Z,99.99
2023-01-07T19:56:34.634Z,99.99
2023-01-07T19:57:34.594Z,99.99
2023-01-07T19:58:34.583Z,99.99
2023-01-07T19:59:34.648Z,99.99
2023-01-07T20:00:34.627Z,99.99
2023-01-07T20:01:35.043Z,99.99
2023-01-07T20:02:34.594Z,99.99
2023-01-07T20:03:34.611Z,99.99
2023-01-07T20:04:34.470Z,99.99
2023-01-07T20:05:34.561Z,99.99
2023-01-07T20:06:34.661Z,99.99
2023-01-07T20:07:34.487Z,99.99
2023-01-07T20:08:34.653Z,99.99
2023-01-07T20:09:34.531Z,99.99
2023-01-07T20:10:34.627Z,99.99
2023-01-07T20:11:34.456Z,99.99
2023-01-07T20:12:34.445Z,99.99
2023-01-07T20:13:34.450Z,99.99
2023-01-07T20:14:34.380Z,99.99
2023-01-07T20:15:34.447Z,99.99
2023-01-07T20:16:34.454Z,99.99
2023-01-07T20:17:34.487Z,99.99
2023-01-07T20:18:34.423Z,99.99
2023-01-07T20:19:34.292Z,99.99
2023-01-07T20:20:34.473Z,99.99
2023-01-07T20:21:34.271Z,99.99
2023-01-07T20:22:34.349Z,99.99
2023-01-07T20:23:34.304Z,99.99
2023-01-07T20:24:34.226Z,99.99
2023-01-07T20:25:34.493Z,99.99
2023-01-07T20:26:34.312Z,99.99
2023-01-07T20:27:34.237Z,99.99
2023-01-07T20:28:36.467Z,99.99
2023-01-07T20:29:34.220Z,99.99
2023-01-07T20:30:34.240Z,99.99
2023-01-07T20:31:34.475Z,99.99
2023-01-07T20:32:34.172Z,99.99
2023-01-07T20:33:34.374Z,99.99
2023-01-07T20:34:34.338Z,99.99
2023-01-07T20:35:34.453Z,99.99
2023-01-07T20:36:34.088Z,99.99
2023-01-07T20:37:34.102Z,99.99
2023-01-07T20:38:34.084Z,99.99
2023-01-07T20:39:34.091Z,99.99
2023-01-07T20:40:34.073Z,99.99
2023-01-07T20:41:33.953Z,99.99
2023-01-07T20:42:34.013Z,99.99
2023-01-07T20:43:33.995Z,99.99
2023-01-07T20:44:34.662Z,99.99
2023-01-07T20:45:34.908Z,99.99
2023-01-07T20:46:34.027Z,99.99
2023-01-07T20:47:33.951Z,99.99
2023-01-07T20:48:33.981Z,99.99
2023-01-07T20:49:33.900Z,99.99
2023-01-07T20:50:34.025Z,99.99
2023-01-07T20:51:34.533Z,99.99
2023-01-07T20:52:34.027Z,99.99
2023-01-07T20:53:33.856Z,99.99
2023-01-07T20:54:33.845Z,99.99
2023-01-07T20:55:33.791Z,99.99
2023-01-07T20:56:34.086Z,99.99
2023-01-07T20:57:33.848Z,99.99
2023-01-07T20:58:33.801Z,99.99
2023-01-07T20:59:35.502Z,99.99
2023-01-07T21:00:33.731Z,99.99
2023-01-07T21:01:33.864Z,99.99
2023-01-07T21:02:34.125Z,99.99
2023-01-07T21:03:33.734Z,99.99
2023-01-07T21:04:33.880Z,99.99
2023-01-07T21:05:34.027Z,99.99
2023-01-07T21:06:33.708Z,99.99
2023-01-07T21:07:33.708Z,99.99
2023-01-07T21:08:33.632Z,99.99
2023-01-07T21:09:33.645Z,99.99
2023-01-07T21:10:33.628Z,99.99
2023-01-07T21:11:33.674Z,99.99
2023-01-07T21:12:33.543Z,99.99
2023-01-07T21:13:33.673Z,99.99
2023-01-07T21:14:33.703Z,99.99
2023-01-07T21:15:33.841Z,99.99
2023-01-07T21:16:33.713Z,99.99
2023-01-07T21:17:33.564Z,99.99
2023-01-07T21:18:33.562Z,99.99
2023-01-07T21:19:33.500Z,99.99
2023-01-07T21:20:33.457Z,99.99
2023-01-07T21:21:33.476Z,99.99
2023-01-07T21:22:33.491Z,99.99
2023-01-07T21:23:33.458Z,99.99
2023-01-07T21:24:33.745Z,99.99
2023-01-07T21:25:33.422Z,99.99
2023-01-07T21:26:33.437Z,99.99
2023-01-07T21:27:33.546Z,99.99
2023-01-07T21:28:33.350Z,99.99
2023-01-07T21:29:33.542Z,99.99
2023-01-07T21:30:33.405Z,99.99
2023-01-07T21:31:33.408Z,99.99
2023-01-07T21:32:33.371Z,99.99
2023-01-07T21:33:33.583Z,99.99
2023-01-07T21:34:33.352Z,99.99
2023-01-07T21:35:33.307Z,99.99
2023-01-07T21:36:33.250Z,99.99
2023-01-07T21:37:33.439Z,99.99
2023-01-07T21:38:33.292Z,99.99
2023-01-07T21:39:33.288Z,99.99
2023-01-07T21:40:33.346Z,99.99
2023-01-07T21:41:33.208Z,99.99
2023-01-07T21:42:33.493Z,99.99
2023-01-07T21:43:33.259Z,99.99
2023-01-07T21:44:33.168Z,99.99
2023-01-07T21:45:33.264Z,99.99
2023-01-07T21:46:33.372Z,99.99
2023-01-07T21:47:33.144Z,99.99
2023-01-07T21:48:33.370Z,99.99
2023-01-07T21:49:33.121Z,99.99
2023-01-07T21:50:33.259Z,99.99
2023-01-07T21:51:33.045Z,99.99
2023-01-07T21:52:33.092Z,99.99
2023-01-07T21:53:33.086Z,99.99
2023-01-07T21:54:33.064Z,99.99
2023-01-07T21:55:33.135Z,99.99
2023-01-07T21:56:33.102Z,99.99
2023-01-07T21:57:33.029Z,99.99
2023-01-07T21:58:33.025Z,99.99
2023-01-07T21:59:33.231Z,99.99
2023-01-07T22:00:32.971Z,99.99
2023-01-07T22:01:33.120Z,99.99
2023-01-07T22:02:33.069Z,99.99
2023-01-07T22:03:33.015Z,99.99
2023-01-07T22:04:33.054Z,99.99
2023-01-07T22:05:32.887Z,99.99
2023-01-07T22:06:32.912Z,99.99
2023-01-07T22:07:32.962Z,99.99
2023-01-07T22:08:32.801Z,99.99
2023-01-07T22:09:32.889Z,99.99
2023-01-07T22:10:33.041Z,99.99
2023-01-07T22:11:32.891Z,99.99
2023-01-07T22:12:32.939Z,99.99
2023-01-07T22:13:32.897Z,99.99
2023-01-07T22:14:33.067Z,99.99
2023-01-07T22:15:32.927Z,99.99
2023-01-07T22:16:32.919Z,99.99
2023-01-07T22:17:32.796Z,99.99
2023-01-07T22:18:32.747Z,99.99
2023-01-07T22:19:32.701Z,99.99
2023-01-07T22:20:32.729Z,99.99
2023-01-07T22:21:32.933Z,99.99
2023-01-07T22:22:32.865Z,99.99
2023-01-07T22:23:32.642Z,99.99
2023-01-07T22:24:32.753Z,99.99
2023-01-07T22:25:33.121Z,99.99
2023-01-07T22:26:32.732Z,99.99
2023-01-07T22:27:32.642Z,99.99
2023-01-07T22:28:32.716Z,99.99
2023-01-07T22:29:32.659Z,99.99
2023-01-07T22:30:32.609Z,99.99
2023-01-07T22:31:32.828Z,99.99
2023-01-07T22:32:32.740Z,99.99
2023-01-07T22:33:32.748Z,99.99
2023-01-07T22:34:32.515Z,99.99
2023-01-07T22:35:32.847Z,99.99
2023-01-07T22:36:32.554Z,99.99
2023-01-07T22:37:32.609Z,99.99
2023-01-07T22:38:32.546Z,99.99
2023-01-07T22:39:32.571Z,99.99
2023-01-07T22:40:32.450Z,99.99
2023-01-07T22:41:32.625Z,99.99
2023-01-07T22:42:32.412Z,99.99
2023-01-07T22:43:32.626Z,99.99
2023-01-07T22:44:32.482Z,99.99
2023-01-07T22:45:32.430Z,99.99
2023-01-07T22:46:32.439Z,99.99
2023-01-07T22:47:32.444Z,99.99
2023-01-07T22:48:32.417Z,99.99
2023-01-07T22:49:32.838Z,99.99
2023-01-07T22:50:32.401Z,99.99
2023-01-07T22:51:32.587Z,99.99
2023-01-07T22:52:32.446Z,99.99
2023-01-07T22:53:32.325Z,99.99
2023-01-07T22:54:32.514Z,99.99
2023-01-07T22:55:32.247Z,99.99
2023-01-07T22:56:32.226Z,99.99
2023-01-07T22:57:32.318Z,99.99
2023-01-07T22:58:32.195Z,99.99
2023-01-07T22:59:32.250Z,99.99
2023-01-07T23:00:32.624Z,99.99
2023-01-07T23:01:32.283Z,99.99
2023-01-07T23:02:32.222Z,99.99
2023-01-07T23:03:32.312Z,99.99
2023-01-07T23:04:32.317Z,99.99
2023-01-07T23:05:32.242Z,99.99
2023-01-07T23:06:32.103Z,99.99
2023-01-07T23:07:32.232Z,99.99
2023-01-07T23:08:32.092Z,99.99
2023-01-07T23:09:32.029Z,99.99
2023-01-07T23:10:32.033Z,99.99
2023-01-07T23:11:32.131Z,99.99
2023-01-07T23:12:32.011Z,99.99
2023-01-07T23:13:32.001Z,99.99
2023-01-07T23:14:32.107Z,99.99
2023-01-07T23:15:32.041Z,99.99
2023-01-07T23:16:32.052Z,99.99
2023-01-07T23:17:32.028Z,99.99
2023-01-07T23:18:31.969Z,99.99
2023-01-07T23:19:32.301Z,99.99
2023-01-07T23:20:31.918Z,99.99
2023-01-07T23:21:32.012Z,99.99
2023-01-07T23:22:32.164Z,99.99
2023-01-07T23:23:31.879Z,99.99
2023-01-07T23:24:32.129Z,99.99
2023-01-07T23:25:31.942Z,99.99
2023-01-07T23:26:32.093Z,99.99
2023-01-07T23:27:31.949Z,99.99
2023-01-07T23:28:31.852Z,99.99
2023-01-07T23:29:31.815Z,99.99
2023-01-07T23:30:31.814Z,99.99
2023-01-07T23:31:31.989Z,99.99
2023-01-07T23:32:31.809Z,99.99
2023-01-07T23:33:31.730Z,99.99
2023-01-07T23:34:31.891Z,99.99
2023-01-07T23:35:31.940Z,99.99
2023-01-07T23:36:31.782Z,99.99
2023-01-07T23:37:31.949Z,99.99
2023-01-07T23:38:31.792Z,99.99
2023-01-07T23:39:31.759Z,99.99
2023-01-07T23:40:31.774Z,99.99
2023-01-07T23:41:31.642Z,99.99
2023-01-07T23:42:31.637Z,99.99
2023-01-07T23:43:31.649Z,99.99
2023-01-07T23:44:31.900Z,99.99
2023-01-07T23:45:31.613Z,99.99
2023-01-07T23:46:31.582Z,99.99
2023-01-07T23:47:31.643Z,99.99
2023-01-07T23:48:31.589Z,99.99
2023-01-07T23:49:31.687Z,99.99
2023-01-07T23:50:31.551Z,99.99
2023-01-07T23:51:31.646Z,99.99
2023-01-07T23:52:31.491Z,99.99
2023-01-07T23:53:31.624Z,99.99
2023-01-07T23:54:31.575Z,99.99
2023-01-07T23:55:31.485Z,99.99
2023-01-07T23:56:31.504Z,99.99
2023-01-07T23:57:31.429Z,99.99
2023-01-07T23:58:31.393Z,99.99
2023-01-07T23:59:31.709Z,99.99
